createdAt,value
2023-03-05T00:08:39.583Z,96.1
2023-03-05T00:09:10.931Z,94.4
2023-03-05T00:10:11.013Z,94.4
2023-03-05T00:11:10.920Z,94.8
2023-03-05T00:12:10.957Z,95.1
2023-03-05T00:13:10.938Z,94.7
2023-03-05T00:14:10.943Z,95.1
2023-03-05T00:15:10.935Z,94.9
2023-03-05T00:16:10.966Z,94.7
2023-03-05T00:17:10.952Z,94.9
2023-03-05T00:18:10.958Z,94.8
2023-03-05T00:19:10.932Z,94.7
2023-03-05T00:20:10.930Z,94.5
2023-03-05T00:21:10.973Z,94.4
2023-03-05T00:22:10.979Z,94.8
2023-03-05T00:23:10.978Z,94.9
2023-03-05T00:24:10.938Z,95.2
2023-03-05T00:25:10.938Z,95.4
2023-03-05T00:26:10.928Z,95.3
2023-03-05T00:27:10.964Z,94.9
2023-03-05T00:28:10.932Z,94.9
2023-03-05T00:29:10.968Z,94.9
2023-03-05T00:30:10.942Z,95
2023-03-05T00:31:11.330Z,95.2
2023-03-05T00:32:13.301Z,95.4
2023-03-05T00:33:15.276Z,94.8
2023-03-05T00:35:19.242Z,94.3
2023-03-05T00:36:21.258Z,94.5
2023-03-05T00:37:25.238Z,94.4
2023-03-05T00:38:27.248Z,94.4
2023-03-05T00:39:29.309Z,94.9
2023-03-05T00:40:31.304Z,95.4
2023-03-05T00:41:33.274Z,95.8
2023-03-05T00:42:35.248Z,95.8
2023-03-05T00:43:37.243Z,95
2023-03-05T00:44:39.281Z,95.1
2023-03-05T00:45:41.248Z,95.1
2023-03-05T00:46:43.395Z,95.1
2023-03-05T00:47:45.261Z,95.2
2023-03-05T00:48:47.332Z,95.6
2023-03-05T00:49:49.250Z,95.1
2023-03-05T00:50:51.253Z,95.1
2023-03-05T00:52:56.283Z,95.4
2023-03-05T00:53:58.250Z,95.4
2023-03-05T00:55:00.282Z,95.5
2023-03-05T00:56:02.273Z,95.5
2023-03-05T00:57:04.280Z,95.6
2023-03-05T00:58:06.253Z,95.7
2023-03-05T00:59:08.267Z,95.5
2023-03-05T01:00:10.259Z,95.6
2023-03-05T01:02:14.273Z,94.9
2023-03-05T01:03:16.266Z,94.8
2023-03-05T01:04:18.279Z,94.5
2023-03-05T01:05:21.328Z,94.4
2023-03-05T01:06:24.243Z,94.7
2023-03-05T01:07:26.289Z,94.8
2023-03-05T01:08:28.256Z,95.1
2023-03-05T01:09:30.252Z,95.3
2023-03-05T01:10:32.252Z,94.4
2023-03-05T01:11:34.249Z,94
2023-03-05T01:13:11.302Z,94.7
2023-03-05T01:14:10.977Z,95
2023-03-05T01:15:10.951Z,95.1
2023-03-05T01:16:10.977Z,94.8
2023-03-05T01:17:10.973Z,94.4
2023-03-05T01:18:10.947Z,94
2023-03-05T01:19:10.965Z,94.2
2023-03-05T01:20:10.944Z,94.2
2023-03-05T01:21:10.950Z,94.4
2023-03-05T01:22:10.948Z,94.6
2023-03-05T01:23:10.945Z,94.7
2023-03-05T01:24:10.961Z,94.7
2023-03-05T01:25:10.952Z,94.5
2023-03-05T01:26:10.946Z,94.6
2023-03-05T01:27:10.942Z,94.6
2023-03-05T01:28:10.964Z,94.5
2023-03-05T01:29:10.958Z,94.7
2023-03-05T01:30:10.960Z,94.7
2023-03-05T01:31:12.349Z,94.5
2023-03-05T01:32:14.290Z,94.7
2023-03-05T01:33:16.296Z,95.1
2023-03-05T01:34:18.255Z,95.1
2023-03-05T01:35:21.287Z,94.9
2023-03-05T01:36:24.244Z,94.6
2023-03-05T01:37:26.256Z,94.8
2023-03-05T01:38:28.306Z,94.8
2023-03-05T01:39:30.274Z,94.9
2023-03-05T01:40:32.258Z,95
2023-03-05T01:41:34.254Z,94.2
2023-03-05T01:42:36.262Z,93.9
2023-03-05T01:43:38.273Z,94.3
2023-03-05T01:44:40.280Z,94.5
2023-03-05T01:45:42.284Z,94.6
2023-03-05T01:46:44.260Z,94.7
2023-03-05T01:47:46.255Z,94.5
2023-03-05T01:48:48.270Z,94.5
2023-03-05T01:49:50.301Z,94.8
2023-03-05T01:50:52.265Z,94.8
2023-03-05T01:51:54.259Z,94.8
2023-03-05T01:52:56.260Z,94.7
2023-03-05T01:53:58.264Z,94.7
2023-03-05T01:55:00.281Z,94.9
2023-03-05T01:56:02.269Z,94.9
2023-03-05T01:57:04.318Z,94.6
2023-03-05T01:58:06.268Z,94.8
2023-03-05T01:59:09.316Z,94.8
2023-03-05T02:00:11.481Z,94.9
2023-03-05T02:01:13.358Z,95
2023-03-05T02:03:18.276Z,94.9
2023-03-05T02:04:21.335Z,94.9
2023-03-05T02:05:24.276Z,95.1
2023-03-05T02:06:26.273Z,94.9
2023-03-05T02:07:28.270Z,94.5
2023-03-05T02:08:30.317Z,94.5
2023-03-05T02:09:32.291Z,94.8
2023-03-05T02:10:34.264Z,94.9
2023-03-05T02:11:36.264Z,94.7
2023-03-05T02:12:38.325Z,94.8
2023-03-05T02:13:40.294Z,94.6
2023-03-05T02:14:42.278Z,94.9
2023-03-05T02:15:44.287Z,95.1
2023-03-05T02:16:46.300Z,95.1
2023-03-05T02:17:48.318Z,95.2
2023-03-05T02:18:50.278Z,95.5
2023-03-05T02:19:52.323Z,95.4
2023-03-05T02:20:54.301Z,95.8
2023-03-05T02:21:56.292Z,95.8
2023-03-05T02:22:58.314Z,96.1
2023-03-05T02:24:00.290Z,96
2023-03-05T02:25:02.280Z,95.7
2023-03-05T02:26:04.348Z,95.8
2023-03-05T02:27:06.304Z,95.8
2023-03-05T02:28:08.337Z,95.6
2023-03-05T02:29:10.295Z,96
2023-03-05T02:30:12.293Z,96.5
2023-03-05T02:31:14.283Z,96.7
2023-03-05T02:32:16.487Z,97
2023-03-05T02:33:18.308Z,96.7
2023-03-05T02:34:21.356Z,96.7
2023-03-05T02:35:24.369Z,96.1
2023-03-05T02:36:26.317Z,95.9
2023-03-05T02:37:28.304Z,96.1
2023-03-05T02:38:30.304Z,96.6
2023-03-05T02:39:32.300Z,96.7
2023-03-05T02:40:34.291Z,96.8
2023-03-05T02:41:37.333Z,96.6
2023-03-05T02:42:40.307Z,96.5
2023-03-05T02:44:11.066Z,96.2
2023-03-05T02:45:10.984Z,96.2
2023-03-05T02:46:11.068Z,96.1
2023-03-05T02:47:11.023Z,96.1
2023-03-05T02:48:11.003Z,95.9
2023-03-05T02:49:10.993Z,95.7
2023-03-05T02:50:57.296Z,95.2
2023-03-05T02:51:59.305Z,94.9
2023-03-05T02:53:11.007Z,94.3
2023-03-05T02:55:10.997Z,94
2023-03-05T02:56:11.032Z,94.1
2023-03-05T02:57:11.014Z,94
2023-03-05T02:58:22.676Z,93.5
2023-03-05T03:02:21.378Z,92.7
2023-03-05T03:03:33.458Z,93
2023-03-05T03:04:36.409Z,93.1
2023-03-05T03:05:38.416Z,93.3
2023-03-05T03:06:40.404Z,92.4
2023-03-05T03:07:42.433Z,92.6
2023-03-05T03:08:44.423Z,92.8
2023-03-05T03:09:46.468Z,92.8
2023-03-05T03:10:48.421Z,93.2
2023-03-05T03:11:50.438Z,92.9
2023-03-05T03:12:52.413Z,93.5
2023-03-05T03:13:54.440Z,93.4
2023-03-05T03:14:56.418Z,93.5
2023-03-05T03:15:58.423Z,93.6
2023-03-05T03:17:00.493Z,93.6
2023-03-05T03:18:02.413Z,92.8
2023-03-05T03:19:04.440Z,92.8
2023-03-05T03:20:06.423Z,93.1
2023-03-05T03:21:08.430Z,93.3
2023-03-05T03:22:10.427Z,93.1
2023-03-05T03:23:12.437Z,93.3
2023-03-05T03:24:14.443Z,92.8
2023-03-05T03:25:16.437Z,91.4
2023-03-05T03:26:19.427Z,91.6
2023-03-05T03:27:21.461Z,92.3
2023-03-05T03:29:11.029Z,93.1
2023-03-05T03:30:11.065Z,93.4
2023-03-05T03:31:11.076Z,93.6
2023-03-05T03:32:11.076Z,93.6
2023-03-05T03:33:11.025Z,93.7
2023-03-05T03:34:11.030Z,93.9
2023-03-05T03:35:11.028Z,93.6
2023-03-05T03:36:11.025Z,93.6
2023-03-05T03:37:11.073Z,93.6
2023-03-05T03:38:11.021Z,92.9
2023-03-05T03:39:52.507Z,92.3
2023-03-05T03:40:51.465Z,92.4
2023-03-05T03:41:53.446Z,92.8
2023-03-05T03:42:55.434Z,92.7
2023-03-05T03:43:57.439Z,92.6
2023-03-05T03:44:59.432Z,92.4
2023-03-05T03:46:01.464Z,91.9
2023-03-05T03:47:03.441Z,91.6
2023-03-05T03:48:05.441Z,92.1
2023-03-05T03:49:07.442Z,92.2
2023-03-05T03:50:09.452Z,92.6
2023-03-05T03:51:11.445Z,92.6
2023-03-05T03:52:13.480Z,93.1
2023-03-05T03:53:15.439Z,93.4
2023-03-05T03:54:18.444Z,93.2
2023-03-05T03:55:20.450Z,93.5
2023-03-05T03:56:23.490Z,93.6
2023-03-05T03:57:25.444Z,93.6
2023-03-05T03:58:27.447Z,93.8
2023-03-05T03:59:29.464Z,94.2
2023-03-05T04:00:33.465Z,94.3
2023-03-05T04:01:35.520Z,93.9
2023-03-05T04:02:37.493Z,93.4
2023-03-05T04:04:11.080Z,92.8
2023-03-05T04:05:11.050Z,92.7
2023-03-05T04:06:11.055Z,92.2
2023-03-05T04:07:11.046Z,92.5
2023-03-05T04:09:11.055Z,92.5
2023-03-05T04:10:11.110Z,92
2023-03-05T04:11:55.478Z,92.5
2023-03-05T04:12:57.515Z,92.2
2023-03-05T04:13:59.454Z,92.3
2023-03-05T04:15:11.048Z,92.8
2023-03-05T04:16:11.175Z,93.1
2023-03-05T04:17:11.041Z,92.6
2023-03-05T04:18:11.082Z,92
2023-03-05T04:19:11.070Z,91.8
2023-03-05T04:20:11.568Z,91.9
2023-03-05T04:21:13.457Z,91.9
2023-03-05T04:22:15.466Z,91.5
2023-03-05T04:23:17.464Z,92
2023-03-05T04:24:19.461Z,92
2023-03-05T04:25:21.462Z,92.7
2023-03-05T04:26:23.491Z,92.5
2023-03-05T04:27:25.480Z,92.4
2023-03-05T04:28:27.486Z,92.1
2023-03-05T04:29:33.648Z,92.4
2023-03-05T04:30:35.462Z,92.6
2023-03-05T04:31:38.494Z,92.5
2023-03-05T04:32:40.459Z,92.4
2023-03-05T04:33:42.475Z,92.2
2023-03-05T04:34:44.460Z,92.2
2023-03-05T04:35:46.521Z,92.2
2023-03-05T04:37:50.460Z,91.9
2023-03-05T04:38:52.511Z,92.7
2023-03-05T04:39:54.659Z,92.3
2023-03-05T04:40:56.493Z,92
2023-03-05T04:41:58.467Z,91.7
2023-03-05T04:43:00.477Z,91.8
2023-03-05T04:44:02.480Z,91.6
2023-03-05T04:45:04.478Z,91.4
2023-03-05T04:46:06.537Z,91.6
2023-03-05T04:47:08.465Z,92
2023-03-05T04:48:10.482Z,91.9
2023-03-05T04:49:12.492Z,91.6
2023-03-05T04:50:14.525Z,91.5
2023-03-05T04:51:16.480Z,91.4
2023-03-05T04:52:18.473Z,91.9
2023-03-05T04:53:20.501Z,92.1
2023-03-05T04:54:22.520Z,92.1
2023-03-05T04:55:24.470Z,91.7
2023-03-05T04:56:26.488Z,91.3
2023-03-05T04:57:29.525Z,91.2
2023-03-05T04:58:31.470Z,91.5
2023-03-05T04:59:33.515Z,91.5
2023-03-05T05:00:35.474Z,92
2023-03-05T05:01:37.561Z,92.1
2023-03-05T05:02:39.527Z,92.2
2023-03-05T05:03:41.473Z,92.2
2023-03-05T05:04:43.499Z,92.1
2023-03-05T05:06:11.071Z,92.7
2023-03-05T05:07:11.077Z,92.3
2023-03-05T05:08:11.093Z,91.9
2023-03-05T05:09:11.077Z,92.5
2023-03-05T05:10:11.161Z,93
2023-03-05T05:11:11.084Z,92.9
2023-03-05T05:12:11.122Z,92.6
2023-03-05T05:13:11.113Z,93.1
2023-03-05T05:18:11.187Z,93.3
2023-03-05T05:20:13.501Z,93.5
2023-03-05T05:21:15.488Z,93.3
2023-03-05T05:22:17.489Z,93.5
2023-03-05T05:23:19.520Z,93.4
2023-03-05T05:24:21.550Z,93.7
2023-03-05T05:25:23.504Z,93.8
2023-03-05T05:26:25.491Z,93.7
2023-03-05T05:27:27.506Z,93.9
2023-03-05T05:28:31.567Z,93.8
2023-03-05T05:29:33.501Z,93.9
2023-03-05T05:30:35.502Z,94.1
2023-03-05T05:31:37.614Z,93.9
2023-03-05T05:32:39.639Z,93.6
2023-03-05T05:33:41.509Z,93.7
2023-03-05T05:34:43.492Z,93.9
2023-03-05T05:35:45.596Z,94.2
2023-03-05T05:36:47.499Z,94.7
2023-03-05T05:37:49.512Z,94.7
2023-03-05T05:38:51.501Z,94.3
2023-03-05T05:39:53.509Z,94.4
2023-03-05T05:40:55.505Z,94.8
2023-03-05T05:41:57.503Z,94.9
2023-03-05T05:42:59.532Z,94.9
2023-03-05T05:44:01.509Z,95
2023-03-05T05:45:03.545Z,95.4
2023-03-05T05:46:05.717Z,95.7
2023-03-05T05:47:07.566Z,95.4
2023-03-05T05:48:09.512Z,95.5
2023-03-05T05:49:11.512Z,95.5
2023-03-05T05:50:13.510Z,95.3
2023-03-05T05:51:15.594Z,95.2
2023-03-05T05:53:19.554Z,95.5
2023-03-05T05:54:21.522Z,95.7
2023-03-05T05:55:23.525Z,95.6
2023-03-05T05:56:25.547Z,95.6
2023-03-05T05:57:29.538Z,95.7
2023-03-05T05:58:33.520Z,95.5
2023-03-05T05:59:35.518Z,95.5
2023-03-05T06:00:37.524Z,95.4
2023-03-05T06:01:39.634Z,95.1
2023-03-05T06:02:41.657Z,95
2023-03-05T06:03:43.531Z,94.5
2023-03-05T06:04:45.523Z,94.6
2023-03-05T06:05:48.522Z,94.8
2023-03-05T06:06:50.563Z,95
2023-03-05T06:07:52.549Z,95.2
2023-03-05T06:08:54.523Z,95.5
2023-03-05T06:09:56.518Z,95.7
2023-03-05T06:10:58.516Z,96.1
2023-03-05T06:12:00.528Z,95.9
2023-03-05T06:13:02.574Z,95.4
2023-03-05T06:14:04.524Z,95.5
2023-03-05T06:15:06.533Z,95.7
2023-03-05T06:16:08.565Z,95.7
2023-03-05T06:17:12.946Z,95.8
2023-03-05T06:18:12.556Z,95.4
2023-03-05T06:19:14.518Z,95.4
2023-03-05T06:20:16.526Z,95.5
2023-03-05T06:22:11.134Z,95.5
2023-03-05T06:23:11.132Z,95.7
2023-03-05T06:24:11.168Z,95.9
2023-03-05T06:25:11.188Z,95.7
2023-03-05T06:26:11.310Z,95.8
2023-03-05T06:27:11.158Z,95.7
2023-03-05T06:28:11.158Z,95.3
2023-03-05T06:29:11.138Z,95.2
2023-03-05T06:30:11.160Z,95.1
2023-03-05T06:31:11.236Z,94.9
2023-03-05T06:32:11.187Z,94.9
2023-03-05T06:33:11.134Z,95.1
2023-03-05T06:36:11.148Z,94.5
2023-03-05T06:37:11.220Z,94.5
2023-03-05T06:40:11.213Z,93.3
2023-03-05T06:41:11.192Z,93.7
2023-03-05T06:42:11.234Z,94.2
2023-03-05T06:43:11.170Z,94.7
2023-03-05T06:44:11.178Z,94.8
2023-03-05T06:47:11.226Z,95.1
2023-03-05T06:48:11.131Z,95.1
2023-03-05T06:49:11.128Z,94.7
2023-03-05T06:51:11.296Z,94.2
2023-03-05T06:52:11.204Z,93.9
2023-03-05T06:54:11.153Z,94.3
2023-03-05T06:55:11.169Z,94.3
2023-03-05T06:56:11.167Z,94.6
2023-03-05T06:57:11.254Z,93.7
2023-03-05T06:58:11.220Z,92.9
2023-03-05T06:59:11.219Z,91
2023-03-05T07:00:11.161Z,91.2
2023-03-05T07:01:11.243Z,91.6
2023-03-05T07:02:11.227Z,91.1
2023-03-05T07:04:11.189Z,91.5
2023-03-05T07:05:11.185Z,91.3
2023-03-05T07:06:11.158Z,91
2023-03-05T07:07:11.166Z,91.2
2023-03-05T07:08:58.562Z,91.2
2023-03-05T07:10:00.565Z,91.6
2023-03-05T07:11:02.586Z,91.8
2023-03-05T07:12:04.564Z,92.1
2023-03-05T07:13:06.559Z,92.4
2023-03-05T07:14:08.573Z,92.8
2023-03-05T07:17:14.591Z,92.8
2023-03-05T07:18:16.561Z,92.6
2023-03-05T07:19:18.575Z,92.8
2023-03-05T07:20:20.573Z,93.1
2023-03-05T07:21:22.594Z,93.2
2023-03-05T07:22:24.593Z,93.1
2023-03-05T07:23:26.577Z,93.5
2023-03-05T07:24:29.580Z,93.7
2023-03-05T07:25:46.071Z,93.7
2023-03-05T07:27:11.198Z,93.7
2023-03-05T07:28:11.164Z,93.9
2023-03-05T07:29:11.225Z,93.5
2023-03-05T07:30:11.185Z,93.3
2023-03-05T07:31:11.230Z,92.9
2023-03-05T07:32:11.385Z,91.3
2023-03-05T07:33:11.170Z,91.3
2023-03-05T07:34:11.169Z,91
2023-03-05T07:36:11.221Z,91.8
2023-03-05T07:37:11.174Z,92.2
2023-03-05T07:38:11.160Z,92.6
2023-03-05T07:39:11.170Z,92.1
2023-03-05T07:40:11.224Z,92.2
2023-03-05T07:41:11.215Z,92.5
2023-03-05T07:42:11.197Z,92.7
2023-03-05T07:43:11.160Z,92.9
2023-03-05T07:44:11.177Z,93.4
2023-03-05T07:46:13.704Z,93.8
2023-03-05T07:47:15.650Z,93.8
2023-03-05T07:48:17.585Z,93.9
2023-03-05T07:49:19.586Z,93.6
2023-03-05T07:50:21.577Z,92.8
2023-03-05T07:52:25.604Z,92.7
2023-03-05T07:53:27.618Z,92.9
2023-03-05T07:55:33.583Z,92.5
2023-03-05T07:56:35.825Z,92.8
2023-03-05T07:57:37.586Z,92.8
2023-03-05T07:58:52.088Z,92.6
2023-03-05T07:59:41.592Z,92.5
2023-03-05T08:00:43.600Z,92.6
2023-03-05T08:01:45.584Z,92.5
2023-03-05T08:02:47.712Z,92.4
2023-03-05T08:04:51.610Z,92.9
2023-03-05T08:06:55.591Z,92.7
2023-03-05T08:07:57.599Z,92.5
2023-03-05T08:09:39.542Z,92.6
2023-03-05T08:11:04.723Z,92.6
2023-03-05T08:12:06.723Z,92.9
2023-03-05T08:15:13.724Z,93.1
2023-03-05T08:16:28.154Z,92.9
2023-03-05T08:21:26.818Z,92.5
2023-03-05T08:23:31.817Z,93.1
2023-03-05T08:24:34.737Z,93.1
2023-03-05T08:26:11.195Z,92.5
2023-03-05T08:27:11.208Z,92.3
2023-03-05T08:28:11.197Z,92.3
2023-03-05T08:29:11.249Z,92
2023-03-05T08:30:11.200Z,92.1
2023-03-05T08:31:11.214Z,92
2023-03-05T08:33:54.739Z,91.2
2023-03-05T08:34:56.805Z,91.9
2023-03-05T08:35:58.757Z,91.8
2023-03-05T08:38:16.112Z,91.8
2023-03-05T08:40:06.845Z,92
2023-03-05T08:41:08.749Z,91.2
2023-03-05T08:42:10.743Z,91.2
2023-03-05T08:44:14.734Z,91.6
2023-03-05T08:46:18.753Z,91.8
2023-03-05T08:48:22.785Z,90.5
2023-03-05T08:49:24.788Z,91.1
2023-03-05T08:50:27.753Z,91.2
2023-03-05T08:51:30.625Z,90.3
2023-03-05T08:52:45.162Z,90
2023-03-05T08:54:04.120Z,89.8
2023-03-05T08:54:49.240Z,89.7
2023-03-05T08:55:51.156Z,89.8
2023-03-05T08:56:53.158Z,90.4
2023-03-05T08:59:13.524Z,89.3
2023-03-05T09:00:11.219Z,89.6
2023-03-05T09:01:11.224Z,90.3
2023-03-05T09:02:11.246Z,90
2023-03-05T09:07:11.285Z,90
2023-03-05T09:09:11.326Z,89.4
2023-03-05T09:10:11.289Z,89.5
2023-03-05T09:12:23.182Z,90.6
2023-03-05T09:14:27.179Z,89.8
2023-03-05T09:15:29.170Z,90.1
2023-03-05T09:16:31.255Z,89.6
2023-03-05T09:17:33.179Z,89.9
2023-03-05T09:18:35.172Z,89.8
2023-03-05T09:20:52.143Z,89.6
2023-03-05T09:21:42.122Z,89.8
2023-03-05T09:24:11.226Z,89.8
2023-03-05T09:25:11.231Z,89.6
2023-03-05T09:26:11.232Z,90.1
2023-03-05T09:27:11.318Z,90.6
2023-03-05T09:28:57.125Z,90.5
2023-03-05T09:29:59.120Z,90.3
2023-03-05T09:31:01.084Z,90.3
2023-03-05T09:32:03.345Z,91
2023-03-05T09:34:11.236Z,91.5
2023-03-05T09:36:12.125Z,90.5
2023-03-05T09:38:16.157Z,90.9
2023-03-05T09:39:18.095Z,91.1
2023-03-05T09:41:22.438Z,91
2023-03-05T09:42:24.096Z,91.3
2023-03-05T09:44:11.237Z,92.6
2023-03-05T09:45:32.125Z,92.4
2023-03-05T09:47:11.454Z,91.6
2023-03-05T09:49:11.246Z,92.3
2023-03-05T09:50:11.244Z,92.4
2023-03-05T09:51:11.238Z,92.8
2023-03-05T09:52:11.290Z,91.8
2023-03-05T09:53:11.253Z,92.2
2023-03-05T09:54:11.252Z,92.2
2023-03-05T09:55:11.251Z,92.5
2023-03-05T09:56:11.253Z,93.1
2023-03-05T09:57:11.288Z,93.5
2023-03-05T09:58:11.244Z,93.4
2023-03-05T09:59:11.253Z,93.5
2023-03-05T10:01:06.000Z,93.7
2023-03-05T10:03:10.134Z,93.7
2023-03-05T10:04:12.020Z,92.6
2023-03-05T10:05:14.013Z,92.4
2023-03-05T10:06:16.155Z,92.6
2023-03-05T10:08:20.061Z,93.1
2023-03-05T10:09:21.990Z,92.5
2023-03-05T10:10:24.036Z,92.2
2023-03-05T10:11:26.019Z,92.4
2023-03-05T10:12:28.105Z,92.7
2023-03-05T10:13:30.032Z,92.5
2023-03-05T10:14:32.056Z,92.6
2023-03-05T10:15:34.014Z,92.6
2023-03-05T10:16:36.138Z,92.5
2023-03-05T10:17:38.013Z,92.2
2023-03-05T10:18:40.056Z,91.7
2023-03-05T10:19:44.100Z,91.8
2023-03-05T10:20:47.015Z,92
2023-03-05T10:21:49.054Z,91.8
2023-03-05T10:23:54.008Z,91.4
2023-03-05T10:25:10.249Z,91.3
2023-03-05T10:28:16.245Z,90.6
2023-03-05T10:29:05.021Z,90.6
2023-03-05T10:30:07.053Z,90.4
2023-03-05T10:31:09.066Z,90.2
2023-03-05T10:33:13.071Z,90.7
2023-03-05T10:35:17.028Z,89.6
2023-03-05T10:36:19.025Z,89.4
2023-03-05T10:37:21.029Z,89.9
2023-03-05T10:39:25.073Z,89.9
2023-03-05T10:40:27.022Z,89.4
2023-03-05T10:42:31.344Z,90.1
2023-03-05T10:44:35.038Z,90.7
2023-03-05T10:46:39.091Z,90.1
2023-03-05T10:47:42.037Z,89.5
2023-03-05T10:48:44.073Z,88.6
2023-03-05T10:49:48.077Z,88.1
2023-03-05T10:50:51.021Z,88.2
2023-03-05T10:51:54.026Z,88.7
2023-03-05T10:52:56.046Z,88.8
2023-03-05T10:53:58.068Z,88.8
2023-03-05T10:55:00.054Z,89.4
2023-03-05T10:56:02.217Z,89.9
2023-03-05T10:57:16.182Z,89.5
2023-03-05T10:58:06.177Z,89.2
2023-03-05T10:59:08.211Z,89.2
2023-03-05T11:00:22.260Z,88.5
2023-03-05T11:02:15.274Z,88.9
2023-03-05T11:03:17.182Z,88.1
2023-03-05T11:04:19.222Z,88.5
2023-03-05T11:05:21.187Z,88.9
2023-03-05T11:06:23.219Z,89.2
2023-03-05T11:07:25.220Z,89
2023-03-05T11:08:27.215Z,89.3
2023-03-05T11:10:31.176Z,89.7
2023-03-05T11:11:33.206Z,90
2023-03-05T11:12:35.194Z,90.1
2023-03-05T11:15:11.286Z,90.1
2023-03-05T11:16:11.309Z,90.6
2023-03-05T11:17:11.356Z,90.5
2023-03-05T11:18:11.342Z,90.6
2023-03-05T11:19:11.272Z,90.1
2023-03-05T11:20:11.348Z,90.1
2023-03-05T11:21:11.303Z,90.5
2023-03-05T11:22:11.309Z,90.4
2023-03-05T11:23:11.533Z,90.5
2023-03-05T11:24:11.360Z,91
2023-03-05T11:25:11.300Z,90.7
2023-03-05T11:28:12.728Z,90.2
2023-03-05T11:29:11.368Z,90.1
2023-03-05T11:30:11.315Z,90.6
2023-03-05T11:31:11.455Z,90.6
2023-03-05T11:32:13.286Z,91.1
2023-03-05T11:33:28.193Z,91.3
2023-03-05T11:34:17.196Z,91.4
2023-03-05T11:36:21.238Z,91.3
2023-03-05T11:37:23.211Z,91.6
2023-03-05T11:38:25.200Z,91.7
2023-03-05T11:40:11.396Z,91.9
2023-03-05T11:41:11.316Z,92.1
2023-03-05T11:42:11.324Z,92.3
2023-03-05T11:43:11.314Z,92.5
2023-03-05T11:45:11.318Z,91.6
2023-03-05T11:46:11.369Z,91.7
2023-03-05T11:47:11.430Z,91.9
2023-03-05T11:48:11.325Z,92.1
2023-03-05T11:49:11.324Z,92.2
2023-03-05T11:50:11.314Z,92.1
2023-03-05T11:51:11.376Z,92.4
2023-03-05T11:52:11.327Z,92.3
2023-03-05T11:54:11.368Z,92
2023-03-05T11:55:11.305Z,91.5
2023-03-05T11:56:11.310Z,91.1
2023-03-05T11:57:11.319Z,90.8
2023-03-05T11:58:11.353Z,90.4
2023-03-05T11:59:11.382Z,90.8
2023-03-05T12:00:11.538Z,90.7
2023-03-05T12:01:11.343Z,90.9
2023-03-05T12:02:12.225Z,91.1
2023-03-05T12:03:14.273Z,90.7
2023-03-05T12:04:16.232Z,91.1
2023-03-05T12:05:19.219Z,91.2
2023-03-05T12:06:21.215Z,90.3
2023-03-05T12:07:23.224Z,90.3
2023-03-05T12:08:25.272Z,90.5
2023-03-05T12:09:27.255Z,90.5
2023-03-05T12:10:29.240Z,90.1
2023-03-05T12:11:31.238Z,90
2023-03-05T12:13:35.281Z,89.8
2023-03-05T12:14:37.237Z,89.5
2023-03-05T12:15:39.245Z,89.9
2023-03-05T12:16:43.249Z,90.3
2023-03-05T12:18:11.460Z,89.9
2023-03-05T12:19:11.341Z,90
2023-03-05T12:20:11.427Z,90.6
2023-03-05T12:21:11.380Z,90.5
2023-03-05T12:22:11.344Z,89.9
2023-03-05T12:23:11.342Z,89
2023-03-05T12:24:11.341Z,89.2
2023-03-05T12:26:02.243Z,89.6
2023-03-05T12:27:04.562Z,89.7
2023-03-05T12:28:06.248Z,90
2023-03-05T12:29:08.236Z,89.4
2023-03-05T12:30:10.247Z,88.4
2023-03-05T12:31:12.285Z,87.9
2023-03-05T12:32:14.304Z,88.4
2023-03-05T12:33:17.326Z,88.7
2023-03-05T12:34:19.243Z,88.7
2023-03-05T12:35:21.281Z,88.8
2023-03-05T12:36:23.236Z,87.1
2023-03-05T12:37:25.238Z,87
2023-03-05T12:38:27.369Z,87.1
2023-03-05T12:39:29.259Z,86.9
2023-03-05T12:40:31.250Z,86.9
2023-03-05T12:41:46.326Z,87.7
2023-03-05T12:42:35.252Z,86.9
2023-03-05T12:43:37.250Z,87.3
2023-03-05T12:44:39.254Z,87.5
2023-03-05T12:45:41.257Z,86.9
2023-03-05T12:46:47.351Z,86.8
2023-03-05T12:47:49.257Z,87.4
2023-03-05T12:48:51.350Z,86.9
2023-03-05T12:49:53.269Z,86.6
2023-03-05T12:50:55.245Z,86.7
2023-03-05T12:52:10.288Z,86.6
2023-03-05T12:54:01.277Z,85.7
2023-03-05T12:55:03.261Z,86.1
2023-03-05T12:56:05.590Z,86.3
2023-03-05T12:57:07.277Z,86.1
2023-03-05T12:58:09.296Z,85.8
2023-03-05T12:59:11.258Z,85.4
2023-03-05T13:00:13.259Z,85.8
2023-03-05T13:01:15.294Z,86.3
2023-03-05T13:02:17.264Z,86.6
2023-03-05T13:03:19.352Z,87.4
2023-03-05T13:04:21.311Z,87.1
2023-03-05T13:05:23.270Z,87
2023-03-05T13:06:25.251Z,87.3
2023-03-05T13:07:28.255Z,87.1
2023-03-05T13:08:30.266Z,86.1
2023-03-05T13:09:32.308Z,86.3
2023-03-05T13:10:34.268Z,86.7
2023-03-05T13:11:37.425Z,86.7
2023-03-05T13:12:39.281Z,86.8
2023-03-05T13:13:41.260Z,87.1
2023-03-05T13:14:43.320Z,87
2023-03-05T13:15:45.254Z,87.2
2023-03-05T13:16:47.322Z,87.6
2023-03-05T13:17:49.273Z,87.6
2023-03-05T13:18:51.283Z,87.7
2023-03-05T13:19:53.263Z,88.3
2023-03-05T13:20:55.288Z,88.2
2023-03-05T13:21:57.288Z,88.6
2023-03-05T13:22:59.266Z,88.1
2023-03-05T13:24:01.274Z,87.3
2023-03-05T13:25:11.483Z,87.7
2023-03-05T13:26:11.372Z,87.5
2023-03-05T13:27:11.451Z,86.9
2023-03-05T13:28:11.387Z,86.6
2023-03-05T13:29:11.472Z,87.5
2023-03-05T13:30:13.283Z,87.6
2023-03-05T13:31:15.331Z,87.8
2023-03-05T13:32:17.300Z,87.6
2023-03-05T13:34:11.439Z,87.5
2023-03-05T13:35:11.389Z,87.3
2023-03-05T13:36:11.386Z,86.8
2023-03-05T13:37:11.381Z,85.8
2023-03-05T13:38:11.426Z,86.4
2023-03-05T13:39:11.459Z,86.6
2023-03-05T13:40:11.443Z,86.8
2023-03-05T13:41:11.398Z,86.4
2023-03-05T13:42:38.904Z,86.6
2023-03-05T13:43:40.911Z,86.6
2023-03-05T13:44:43.926Z,86.7
2023-03-05T13:45:46.980Z,86.6
2023-03-05T13:46:48.929Z,85.6
2023-03-05T13:47:50.912Z,85.4
2023-03-05T13:48:53.935Z,85.6
2023-03-05T13:49:55.951Z,85.7
2023-03-05T13:51:10.369Z,86.1
2023-03-05T13:52:11.393Z,86.5
2023-03-05T13:53:11.432Z,86.6
2023-03-05T13:54:11.437Z,85.4
2023-03-05T13:55:11.432Z,85.4
2023-03-05T13:56:22.341Z,85.2
2023-03-05T13:57:11.382Z,84.9
2023-03-05T13:58:11.938Z,84.8
2023-03-05T13:59:14.473Z,85
2023-03-05T14:02:19.916Z,85
2023-03-05T14:03:21.924Z,85.3
2023-03-05T14:04:23.970Z,85.5
2023-03-05T14:05:25.920Z,85.5
2023-03-05T14:09:35.093Z,84.9
2023-03-05T14:11:38.920Z,85.2
2023-03-05T14:13:43.977Z,85
2023-03-05T14:14:46.941Z,86
2023-03-05T14:15:48.919Z,86
2023-03-05T14:16:51.013Z,85.9
2023-03-05T14:17:52.977Z,86.6
2023-03-05T14:18:54.945Z,86.3
2023-03-05T14:19:56.916Z,86.6
2023-03-05T14:20:59.631Z,86
2023-03-05T14:23:03.085Z,84.9
2023-03-05T14:24:11.609Z,85.5
2023-03-05T14:25:11.638Z,85.2
2023-03-05T14:26:11.418Z,85.3
2023-03-05T14:27:11.430Z,85.6
2023-03-05T14:28:12.940Z,86
2023-03-05T14:31:19.151Z,87
2023-03-05T14:32:21.977Z,86.3
2023-03-05T14:34:25.996Z,86.2
2023-03-05T14:35:28.147Z,86.8
2023-03-05T14:36:29.997Z,86.3
2023-03-05T14:37:46.299Z,86.1
2023-03-05T14:38:33.941Z,86.8
2023-03-05T14:39:35.933Z,85.9
2023-03-05T14:41:11.463Z,86.4
2023-03-05T14:43:11.460Z,87.4
2023-03-05T14:44:11.425Z,87
2023-03-05T14:45:11.479Z,87.1
2023-03-05T14:48:11.458Z,86.4
2023-03-05T14:49:11.420Z,86.8
2023-03-05T14:50:11.440Z,86.8
2023-03-05T14:51:11.469Z,87.1
2023-03-05T14:52:11.473Z,86.8
2023-03-05T14:53:11.490Z,86.7
2023-03-05T14:54:11.439Z,86.3
2023-03-05T14:55:11.432Z,86.4
2023-03-05T14:57:13.963Z,86.2
2023-03-05T14:58:16.008Z,86.2
2023-03-05T14:59:17.977Z,85.9
2023-03-05T15:00:19.960Z,86.1
2023-03-05T15:01:22.017Z,86.6
2023-03-05T15:02:24.080Z,86.8
2023-03-05T15:03:27.009Z,87.1
2023-03-05T15:04:29.006Z,87.1
2023-03-05T15:05:30.965Z,87.4
2023-03-05T15:06:33.204Z,87.6
2023-03-05T15:07:34.970Z,87.7
2023-03-05T15:08:37.002Z,87.6
2023-03-05T15:09:39.006Z,87.5
2023-03-05T15:10:40.986Z,87.7
2023-03-05T15:11:43.982Z,88.5
2023-03-05T15:12:46.977Z,88.4
2023-03-05T15:13:48.972Z,87.8
2023-03-05T15:14:51.002Z,87.8
2023-03-05T15:15:52.989Z,87.9
2023-03-05T15:16:55.016Z,88.6
2023-03-05T15:17:56.961Z,88.6
2023-03-05T15:18:58.969Z,88.4
2023-03-05T15:20:00.965Z,88.1
2023-03-05T15:21:02.960Z,88.1
2023-03-05T15:22:05.005Z,88.6
2023-03-05T15:23:06.969Z,88.6
2023-03-05T15:24:11.206Z,88.5
2023-03-05T15:25:10.974Z,89.2
2023-03-05T15:26:13.029Z,89.2
2023-03-05T15:27:15.010Z,89.7
2023-03-05T15:28:17.996Z,89.8
2023-03-05T15:29:19.970Z,89.6
2023-03-05T15:30:21.981Z,89.6
2023-03-05T15:31:23.984Z,89.5
2023-03-05T15:32:26.060Z,89.2
2023-03-05T15:33:28.061Z,89
2023-03-05T15:34:29.969Z,89.2
2023-03-05T15:35:32.020Z,89.5
2023-03-05T15:36:33.990Z,89.4
2023-03-05T15:37:35.983Z,89.4
2023-03-05T15:38:38.004Z,89.7
2023-03-05T15:39:40.065Z,89.8
2023-03-05T15:40:44.004Z,90.1
2023-03-05T15:41:46.981Z,90.6
2023-03-05T15:42:48.991Z,90.6
2023-03-05T15:43:50.980Z,90.2
2023-03-05T15:44:53.030Z,89.9
2023-03-05T15:45:55.055Z,90
2023-03-05T15:46:57.982Z,90.3
2023-03-05T15:47:59.984Z,90.2
2023-03-05T15:49:02.006Z,90.5